Treloar, Missouri
Current Conditions -  °F | °C
As of 3:35 AM on Saturday 20 Dec 2014 (Local Time) from KFYG Reporting Station
Haze Haze  
Wind Chill: 36°   Ceiling: 2300
Heat Index: 36°   Visibility: 5mi
Dew Point: 32°   Wind: 3mph
Humidity: 87%   Direction: 120°ESE
Pressure: 30.25"   Gusts: NA
Location:  38.64°N, 91.19°W
Report Text: KFYG 200935Z AUTO 12003KT 5SM BR OVC023 02/00 A3025 RMK AO2
Loading
Personal Weather Stations






























Interactive Weather Map New forecast layout! Learn more

10-Day Weather Forecast

Advertisements
Track Severe Weather on mobile